createdAt,value
2023-01-28T00:01:59.192Z,98870.53
2023-01-28T00:04:26.285Z,98858.44
2023-01-28T00:06:54.817Z,98857.97
2023-01-28T00:09:22.510Z,98854.78
2023-01-28T00:11:49.887Z,98857.25
2023-01-28T00:14:17.353Z,98853.94
2023-01-28T00:16:44.871Z,98836.03
2023-01-28T00:19:12.361Z,98855.72
2023-01-28T00:21:43.735Z,98854.84
2023-01-28T00:24:11.088Z,98845.97
2023-01-28T00:26:38.154Z,98856.78
2023-01-28T00:29:05.258Z,98859.25
2023-01-28T00:31:32.269Z,98850.81
2023-01-28T00:34:00.523Z,98838.34
2023-01-28T00:36:27.900Z,98845.41
2023-01-28T00:38:58.753Z,98849.28
2023-01-28T00:41:29.052Z,98848.59
2023-01-28T00:43:59.038Z,98843.94
2023-01-28T00:46:27.387Z,98840.25
2023-01-28T00:48:54.937Z,98836.13
2023-01-28T00:51:22.402Z,98838.13
2023-01-28T00:53:49.922Z,98844.06
2023-01-28T00:56:18.864Z,98843.94
2023-01-28T00:58:46.726Z,98840.38
2023-01-28T01:01:18.910Z,98840.88
2023-01-28T01:03:46.754Z,98835.16
2023-01-28T01:06:16.686Z,98840.63
2023-01-28T01:08:50.024Z,98831.25
2023-01-28T01:11:18.961Z,98839.44
2023-01-28T01:13:56.769Z,98845.09
2023-01-28T01:16:28.474Z,98848.72
2023-01-28T01:18:56.592Z,98851.34
2023-01-28T01:21:27.097Z,98847.28
2023-01-28T01:23:55.079Z,98849.06
2023-01-28T01:26:22.608Z,98848.34
2023-01-28T01:28:52.251Z,98848.69
2023-01-28T01:31:22.089Z,98847.53
2023-01-28T01:33:51.366Z,98844.69
2023-01-28T01:36:21.648Z,98846.91
2023-01-28T01:38:53.275Z,98848.09
2023-01-28T01:41:31.134Z,98848.94
2023-01-28T01:44:03.152Z,98846.53
2023-01-28T01:46:49.233Z,98862.25
2023-01-28T01:49:23.056Z,98861.50
2023-01-28T01:52:03.598Z,98858.66
2023-01-28T01:54:32.801Z,98858.44
2023-01-28T01:57:03.445Z,98858.09
2023-01-28T01:59:33.660Z,98856.66
2023-01-28T02:02:05.643Z,98862.84
2023-01-28T02:04:39.653Z,98855.25
2023-01-28T02:07:09.433Z,98861.44
2023-01-28T02:09:41.447Z,98864.75
2023-01-28T02:12:18.138Z,98862.72
2023-01-28T02:14:52.173Z,98868.91
2023-01-28T02:17:19.722Z,98867.31
2023-01-28T02:20:10.235Z,98869.63
2023-01-28T02:22:46.164Z,98874.94
2023-01-28T02:25:37.274Z,98870.09
2023-01-28T02:28:33.021Z,98865.81
2023-01-28T02:31:19.874Z,98871.03
2023-01-28T02:34:13.465Z,98875.31
2023-01-28T02:36:45.910Z,98873.03
2023-01-28T02:39:33.419Z,98874.59
2023-01-28T02:42:14.878Z,98873.41
2023-01-28T02:44:42.264Z,98872.44
2023-01-28T02:47:33.762Z,98870.53
2023-01-28T02:50:09.946Z,98874.94
2023-01-28T02:53:30.510Z,98878.75
2023-01-28T02:56:34.155Z,98885.03
2023-01-28T02:59:31.755Z,98884.66
2023-01-28T03:02:38.589Z,98889.09
2023-01-28T03:05:25.489Z,98887.19
2023-01-28T03:07:53.791Z,98886.81
2023-01-28T03:10:25.700Z,98890.34
2023-01-28T03:13:15.339Z,98891.91
2023-01-28T03:16:06.648Z,98885.97
2023-01-28T03:18:57.095Z,98891.97
2023-01-28T03:21:54.714Z,98884.28
2023-01-28T03:24:49.973Z,98882.91
2023-01-28T03:28:06.311Z,98878.56
2023-01-28T03:31:12.090Z,98882.00
2023-01-28T03:34:05.675Z,98882.00
2023-01-28T03:36:51.281Z,98885.09
2023-01-28T03:39:38.149Z,98892.78
2023-01-28T03:42:13.586Z,98898.25
2023-01-28T03:45:14.545Z,98895.06
2023-01-28T03:47:43.235Z,98895.19
2023-01-28T03:50:11.783Z,98902.31
2023-01-28T03:53:13.526Z,98907.19
2023-01-28T03:55:48.893Z,98901.50
2023-01-28T03:58:18.059Z,98914.22
2023-01-28T04:00:46.816Z,98902.09
2023-01-28T04:03:19.148Z,98900.97
2023-01-28T04:06:05.175Z,98896.66
2023-01-28T04:08:53.459Z,98902.56
2023-01-28T04:11:53.510Z,98902.81
2023-01-28T04:14:31.389Z,98902.09
2023-01-28T04:17:11.183Z,98898.78
2023-01-28T04:19:38.984Z,98908.03
2023-01-28T04:22:10.747Z,98912.09
2023-01-28T04:24:39.251Z,98914.56
2023-01-28T04:27:06.602Z,98911.38
2023-01-28T04:29:33.939Z,98913.38
2023-01-28T04:32:18.840Z,98914.06
2023-01-28T04:35:15.785Z,98921.44
2023-01-28T04:37:58.255Z,98926.91
2023-01-28T04:40:37.483Z,98936.63
2023-01-28T04:43:10.460Z,98938.97
2023-01-28T04:45:49.341Z,98931.78
2023-01-28T04:48:41.646Z,98937.44
2023-01-28T04:51:28.889Z,98938.06
2023-01-28T04:54:08.763Z,98932.63
2023-01-28T04:56:37.055Z,98937.00
2023-01-28T04:59:04.988Z,98931.09
2023-01-28T05:01:33.326Z,98936.47
2023-01-28T05:04:05.384Z,98940.25
2023-01-28T05:06:34.949Z,98930.00
2023-01-28T05:09:07.616Z,98947.13
2023-01-28T05:11:36.314Z,98941.91
2023-01-28T05:14:05.867Z,98949.47
2023-01-28T05:16:40.575Z,98946.00
2023-01-28T05:19:08.752Z,98949.56
2023-01-28T05:21:40.432Z,98947.34
2023-01-28T05:24:15.987Z,98937.50
2023-01-28T05:26:44.555Z,98944.41
2023-01-28T05:29:12.310Z,98942.91
2023-01-28T05:31:40.316Z,98943.72
2023-01-28T05:34:08.455Z,98943.34
2023-01-28T05:36:35.809Z,98943.59
2023-01-28T05:39:10.641Z,98942.88
2023-01-28T05:41:37.613Z,98939.03
2023-01-28T05:44:05.193Z,98944.81
2023-01-28T05:46:46.551Z,98939.88
2023-01-28T05:49:36.711Z,98948.28
2023-01-28T05:52:31.781Z,98943.63
2023-01-28T05:54:58.961Z,98943.16
2023-01-28T05:57:26.930Z,98943.78
2023-01-28T05:59:54.349Z,98942.06
2023-01-28T06:02:22.400Z,98947.50
2023-01-28T06:04:53.158Z,98949.88
2023-01-28T06:07:20.314Z,98955.28
2023-01-28T06:09:48.467Z,98959.91
2023-01-28T06:12:19.105Z,98969.78
2023-01-28T06:15:01.087Z,98975.56
2023-01-28T06:17:51.973Z,98979.47
2023-01-28T06:20:27.873Z,98975.44
2023-01-28T06:22:57.520Z,98981.06
2023-01-28T06:25:24.781Z,98985.41
2023-01-28T06:27:52.966Z,98990.66
2023-01-28T06:30:20.053Z,98995.97
2023-01-28T06:32:47.435Z,98990.56
2023-01-28T06:35:14.756Z,98997.00
2023-01-28T06:37:42.513Z,98995.97
2023-01-28T06:40:10.456Z,99004.03
2023-01-28T06:42:37.793Z,99012.00
2023-01-28T06:45:05.409Z,99009.34
2023-01-28T06:47:32.358Z,99005.03
2023-01-28T06:49:59.747Z,99011.72
2023-01-28T06:52:26.676Z,99019.56
2023-01-28T06:54:54.166Z,99022.22
2023-01-28T06:57:21.090Z,99024.34
2023-01-28T06:59:48.418Z,99015.69
2023-01-28T07:02:15.329Z,99024.56
2023-01-28T07:04:42.667Z,99024.34
2023-01-28T07:07:10.056Z,99021.06
2023-01-28T07:09:37.352Z,99016.59
2023-01-28T07:12:05.339Z,99027.88
2023-01-28T07:14:32.789Z,99020.59
2023-01-28T07:16:59.792Z,99024.94
2023-01-28T07:19:27.026Z,99028.13
2023-01-28T07:21:58.158Z,99034.78
2023-01-28T07:24:25.511Z,99031.41
2023-01-28T07:26:53.002Z,99036.72
2023-01-28T07:29:20.340Z,99043.00
2023-01-28T07:31:47.939Z,99038.03
2023-01-28T07:34:15.371Z,99040.91
2023-01-28T07:36:42.268Z,99042.88
2023-01-28T07:39:09.236Z,99041.91
2023-01-28T07:41:36.573Z,99041.78
2023-01-28T07:44:06.306Z,99044.28
2023-01-28T07:46:33.743Z,99054.00
2023-01-28T07:49:01.318Z,99048.72
2023-01-28T07:51:28.404Z,99036.06
2023-01-28T07:53:55.395Z,99045.50
2023-01-28T07:56:22.431Z,99056.22
2023-01-28T07:58:52.550Z,99052.28
2023-01-28T08:01:19.688Z,99048.06
2023-01-28T08:03:47.090Z,99058.59
2023-01-28T08:06:14.495Z,99065.22
2023-01-28T08:08:41.901Z,99060.63
2023-01-28T08:11:11.952Z,99061.22
2023-01-28T08:13:39.282Z,99061.84
2023-01-28T08:16:07.048Z,99061.56
2023-01-28T08:18:34.381Z,99072.44
2023-01-28T08:21:01.427Z,99063.81
2023-01-28T08:23:29.107Z,99064.56
2023-01-28T08:25:59.024Z,99068.28
2023-01-28T08:28:26.725Z,99072.16
2023-01-28T08:30:54.312Z,99076.16
2023-01-28T08:33:21.639Z,99078.56
2023-01-28T08:35:48.593Z,99089.94
2023-01-28T08:38:20.342Z,99077.34
2023-01-28T08:40:50.445Z,99085.28
2023-01-28T08:43:17.511Z,99081.53
2023-01-28T08:45:44.892Z,99073.50
2023-01-28T08:48:17.351Z,99071.38
2023-01-28T08:50:45.109Z,99080.22
2023-01-28T08:53:18.572Z,99084.94
2023-01-28T08:55:46.685Z,99076.22
2023-01-28T08:58:17.697Z,99087.44
2023-01-28T09:00:45.690Z,99080.78
2023-01-28T09:03:13.183Z,99079.59
2023-01-28T09:05:40.643Z,99078.94
2023-01-28T09:08:14.534Z,99084.97
2023-01-28T09:10:42.355Z,99081.53
2023-01-28T09:13:13.949Z,99090.88
2023-01-28T09:15:41.846Z,99082.38
2023-01-28T09:18:09.277Z,99093.00
2023-01-28T09:20:37.838Z,99089.22
2023-01-28T09:23:05.440Z,99103.47
2023-01-28T09:25:33.078Z,99104.97
2023-01-28T09:28:00.484Z,99098.56
2023-01-28T09:30:28.258Z,99112.34
2023-01-28T09:32:58.797Z,99113.91
2023-01-28T09:35:26.320Z,99113.84
2023-01-28T09:37:57.594Z,99117.28
2023-01-28T09:40:56.817Z,99120.47
2023-01-28T09:44:04.752Z,99120.91
2023-01-28T09:46:36.889Z,99127.75
2023-01-28T09:49:18.090Z,99123.66
2023-01-28T09:51:52.310Z,99132.31
2023-01-28T09:54:35.831Z,99131.06
2023-01-28T09:57:39.829Z,99139.06
2023-01-28T10:00:34.862Z,99137.69
2023-01-28T10:03:37.059Z,99134.88
2023-01-28T10:06:22.717Z,99140.72
2023-01-28T10:09:42.502Z,99135.66
2023-01-28T10:12:42.769Z,99130.16
2023-01-28T10:15:29.870Z,99137.94
2023-01-28T10:18:17.306Z,99132.72
2023-01-28T10:21:08.491Z,99114.19
2023-01-28T10:23:49.251Z,99121.03
2023-01-28T10:26:33.449Z,99112.69
2023-01-28T10:29:25.080Z,99115.91
2023-01-28T10:31:59.841Z,99121.41
2023-01-28T10:34:27.487Z,99112.59
2023-01-28T10:36:56.961Z,99110.13
2023-01-28T10:39:25.826Z,99108.22
2023-01-28T10:41:58.396Z,99099.88
2023-01-28T10:44:47.597Z,99109.56
2023-01-28T10:47:36.109Z,99106.47
2023-01-28T10:50:04.164Z,99108.03
2023-01-28T10:52:31.497Z,99108.13
2023-01-28T10:55:04.893Z,99112.78
2023-01-28T10:57:34.921Z,99109.47
2023-01-28T11:00:24.768Z,99118.75
2023-01-28T11:02:52.312Z,99120.16
2023-01-28T11:05:29.130Z,99123.47
2023-01-28T11:08:17.327Z,99133.69
2023-01-28T11:10:46.357Z,99131.31
2023-01-28T11:13:17.442Z,99127.16
2023-01-28T11:16:01.973Z,99121.53
2023-01-28T11:18:36.335Z,99128.03
2023-01-28T11:21:07.571Z,99122.25
2023-01-28T11:23:47.742Z,99119.34
2023-01-28T11:26:23.666Z,99124.78
2023-01-28T11:28:52.417Z,99130.09
2023-01-28T11:31:21.994Z,99120.41
2023-01-28T11:34:01.377Z,99132.72
2023-01-28T11:36:31.719Z,99128.13
2023-01-28T11:39:28.377Z,99128.22
2023-01-28T11:42:14.928Z,99125.19
2023-01-28T11:44:42.582Z,99133.41
2023-01-28T11:47:33.521Z,99128.88
2023-01-28T11:50:19.631Z,99131.25
2023-01-28T11:53:06.990Z,99125.41
2023-01-28T11:56:02.481Z,99129.94
2023-01-28T11:58:56.643Z,99129.59
2023-01-28T12:02:09.862Z,99125.75
2023-01-28T12:05:03.539Z,99129.91
2023-01-28T12:08:17.177Z,99135.53
2023-01-28T12:11:41.738Z,99129.13
2023-01-28T12:14:33.077Z,99123.63
2023-01-28T12:17:09.334Z,99129.59
2023-01-28T12:20:05.633Z,99139.66
2023-01-28T12:22:40.281Z,99140.69
2023-01-28T12:25:41.128Z,99131.75
2023-01-28T12:28:17.331Z,99132.19
2023-01-28T12:31:41.308Z,99140.91
2023-01-28T12:34:47.937Z,99140.13
2023-01-28T12:37:52.579Z,99144.28
2023-01-28T12:41:15.089Z,99133.53
2023-01-28T12:44:04.218Z,99139.91
2023-01-28T12:46:59.989Z,99131.13
2023-01-28T12:49:39.039Z,99125.25
2023-01-28T12:52:33.235Z,99119.66
2023-01-28T12:55:22.543Z,99134.88
2023-01-28T12:57:52.697Z,99127.38
2023-01-28T13:00:34.078Z,99127.56
2023-01-28T13:03:28.904Z,99118.47
2023-01-28T13:06:32.358Z,99116.63
2023-01-28T13:09:24.637Z,99116.84
2023-01-28T13:11:56.656Z,99117.31
2023-01-28T13:14:31.160Z,99123.19
2023-01-28T13:17:25.767Z,99116.09
2023-01-28T13:19:53.191Z,99115.56
2023-01-28T13:22:35.978Z,99109.75
2023-01-28T13:25:30.039Z,99107.06
2023-01-28T13:28:01.436Z,99107.50
2023-01-28T13:30:49.217Z,99119.75
2023-01-28T13:34:01.590Z,99108.66
2023-01-28T13:36:43.511Z,99119.44
2023-01-28T13:39:23.127Z,99116.63
2023-01-28T13:41:56.347Z,99116.00
2023-01-28T13:44:26.193Z,99122.09
2023-01-28T13:46:57.751Z,99118.28
2023-01-28T13:49:39.075Z,99131.00
2023-01-28T13:52:12.074Z,99127.16
2023-01-28T13:54:45.299Z,99118.81
2023-01-28T13:57:21.011Z,99117.25
2023-01-28T14:00:08.548Z,99122.38
2023-01-28T14:03:10.033Z,99127.03
2023-01-28T14:06:16.973Z,99133.56
2023-01-28T14:09:08.884Z,99129.91
2023-01-28T14:11:39.363Z,99139.88
2023-01-28T14:15:02.430Z,99134.75
2023-01-28T14:17:47.867Z,99140.97
2023-01-28T14:20:44.109Z,99149.28
2023-01-28T14:23:19.204Z,99148.38
2023-01-28T14:26:12.946Z,99146.91
2023-01-28T14:29:08.920Z,99153.03
2023-01-28T14:31:40.117Z,99154.19
2023-01-28T14:34:26.244Z,99154.97
2023-01-28T14:36:57.391Z,99163.25
2023-01-28T14:39:31.525Z,99171.63
2023-01-28T14:42:03.670Z,99163.88
2023-01-28T14:44:36.136Z,99171.22
2023-01-28T14:47:23.829Z,99166.63
2023-01-28T14:50:18.729Z,99183.44
2023-01-28T14:53:04.698Z,99181.44
2023-01-28T14:55:40.138Z,99186.16
2023-01-28T14:58:16.765Z,99191.47
2023-01-28T15:00:59.251Z,99187.75
2023-01-28T15:03:27.718Z,99186.88
2023-01-28T15:06:15.267Z,99195.13
2023-01-28T15:08:42.678Z,99198.13
2023-01-28T15:11:14.836Z,99204.31
2023-01-28T15:13:46.810Z,99199.94
2023-01-28T15:16:24.237Z,99207.75
2023-01-28T15:18:51.820Z,99205.97
2023-01-28T15:21:24.681Z,99209.94
2023-01-28T15:23:57.063Z,99211.22
2023-01-28T15:26:26.414Z,99216.00
2023-01-28T15:28:55.219Z,99207.75
2023-01-28T15:31:30.125Z,99205.97
2023-01-28T15:34:12.570Z,99227.66
2023-01-28T15:36:40.004Z,99219.03
2023-01-28T15:39:15.530Z,99214.84
2023-01-28T15:41:50.080Z,99219.66
2023-01-28T15:44:44.369Z,99210.50
2023-01-28T15:47:23.587Z,99211.72
2023-01-28T15:49:57.760Z,99217.06
2023-01-28T15:52:40.153Z,99221.34
2023-01-28T15:55:09.094Z,99218.63
2023-01-28T15:57:36.653Z,99215.78
2023-01-28T16:00:14.815Z,99218.38
2023-01-28T16:02:47.688Z,99226.97
2023-01-28T16:05:43.108Z,99238.25
2023-01-28T16:08:19.458Z,99236.59
2023-01-28T16:10:53.888Z,99234.41
2023-01-28T16:13:24.591Z,99235.41
2023-01-28T16:15:55.027Z,99237.19
2023-01-28T16:18:43.293Z,99249.00
2023-01-28T16:21:13.097Z,99253.47
2023-01-28T16:23:40.677Z,99253.88
2023-01-28T16:26:25.980Z,99255.53
2023-01-28T16:28:53.713Z,99263.28
2023-01-28T16:31:21.313Z,99260.25
2023-01-28T16:33:49.008Z,99260.38
2023-01-28T16:36:19.417Z,99262.34
2023-01-28T16:38:46.939Z,99257.84
2023-01-28T16:41:26.611Z,99262.84
2023-01-28T16:43:54.261Z,99267.44
2023-01-28T16:46:21.437Z,99266.31
2023-01-28T16:48:48.472Z,99262.97
2023-01-28T16:51:20.833Z,99261.59
2023-01-28T16:53:48.788Z,99263.06
2023-01-28T16:56:44.412Z,99252.84
2023-01-28T16:59:11.842Z,99253.94
2023-01-28T17:01:39.817Z,99253.59
2023-01-28T17:04:12.225Z,99253.31
2023-01-28T17:06:43.006Z,99249.28
2023-01-28T17:09:11.858Z,99247.34
2023-01-28T17:11:41.982Z,99248.59
2023-01-28T17:14:10.797Z,99245.25
2023-01-28T17:16:38.695Z,99246.00
2023-01-28T17:19:06.249Z,99250.75
2023-01-28T17:21:33.621Z,99262.69
2023-01-28T17:24:01.553Z,99260.41
2023-01-28T17:26:29.169Z,99261.13
2023-01-28T17:28:56.883Z,99257.97
2023-01-28T17:31:24.099Z,99256.63
2023-01-28T17:33:55.255Z,99260.06
2023-01-28T17:36:23.386Z,99260.41
2023-01-28T17:38:50.763Z,99254.75
2023-01-28T17:41:18.855Z,99255.28
2023-01-28T17:43:54.645Z,99271.78
2023-01-28T17:46:23.552Z,99276.75
2023-01-28T17:48:51.417Z,99275.88
2023-01-28T17:51:19.253Z,99276.50
2023-01-28T17:53:51.840Z,99278.25
2023-01-28T17:56:22.981Z,99282.75
2023-01-28T17:58:52.711Z,99276.25
2023-01-28T18:01:21.475Z,99278.97
2023-01-28T18:03:48.901Z,99282.31
2023-01-28T18:06:16.385Z,99276.88
2023-01-28T18:08:43.834Z,99284.19
2023-01-28T18:11:12.882Z,99289.06
2023-01-28T18:13:41.850Z,99284.91
2023-01-28T18:16:14.860Z,99278.47
2023-01-28T18:18:42.888Z,99285.88
2023-01-28T18:21:21.653Z,99284.84
2023-01-28T18:23:50.706Z,99290.34
2023-01-28T18:26:18.382Z,99282.13
2023-01-28T18:28:45.798Z,99268.75
2023-01-28T18:31:13.322Z,99272.69
2023-01-28T18:33:40.741Z,99285.66
2023-01-28T18:36:09.095Z,99295.50
2023-01-28T18:38:36.640Z,99299.69
2023-01-28T18:41:04.111Z,99302.81
2023-01-28T18:43:32.771Z,99289.41
2023-01-28T18:46:00.578Z,99293.19
2023-01-28T18:48:28.572Z,99307.69
2023-01-28T18:50:58.426Z,99325.97
2023-01-28T18:53:26.179Z,99322.53
2023-01-28T18:55:53.964Z,99326.63
2023-01-28T18:58:21.372Z,99315.66
2023-01-28T19:00:48.722Z,99322.25
2023-01-28T19:03:16.139Z,99331.84
2023-01-28T19:05:43.505Z,99329.22
2023-01-28T19:08:10.907Z,99326.19
2023-01-28T19:10:38.286Z,99327.25
2023-01-28T19:13:05.639Z,99328.06
2023-01-28T19:15:33.099Z,99324.75
2023-01-28T19:18:02.069Z,99329.94
2023-01-28T19:20:29.591Z,99324.75
2023-01-28T19:22:56.927Z,99331.72
2023-01-28T19:25:24.272Z,99325.16
2023-01-28T19:27:54.538Z,99333.09
2023-01-28T19:30:22.200Z,99325.16
2023-01-28T19:32:49.585Z,99329.97
2023-01-28T19:35:17.454Z,99333.94
2023-01-28T19:37:46.016Z,99330.47
2023-01-28T19:40:13.696Z,99334.13
2023-01-28T19:42:43.109Z,99328.09
2023-01-28T19:45:10.985Z,99328.69
2023-01-28T19:47:38.868Z,99330.78
2023-01-28T19:50:06.849Z,99333.94
2023-01-28T19:52:34.182Z,99334.38
2023-01-28T19:55:01.552Z,99333.72
2023-01-28T19:57:29.039Z,99323.50
2023-01-28T19:59:56.384Z,99334.69
2023-01-28T20:02:23.785Z,99332.97
2023-01-28T20:05:00.255Z,99340.91
2023-01-28T20:07:28.426Z,99339.16
2023-01-28T20:09:55.847Z,99341.03
2023-01-28T20:12:23.252Z,99337.56
2023-01-28T20:14:50.600Z,99329.34
2023-01-28T20:17:18.413Z,99342.09
2023-01-28T20:19:45.916Z,99346.44
2023-01-28T20:22:13.572Z,99337.91
2023-01-28T20:24:40.936Z,99348.13
2023-01-28T20:27:08.267Z,99349.38
2023-01-28T20:29:35.572Z,99350.13
2023-01-28T20:32:16.219Z,99356.50
2023-01-28T20:34:45.157Z,99366.44
2023-01-28T20:37:12.517Z,99373.09
2023-01-28T20:39:39.870Z,99378.75
2023-01-28T20:42:09.310Z,99385.22
2023-01-28T20:44:36.684Z,99397.41
2023-01-28T20:47:04.352Z,99403.16
2023-01-28T20:49:31.803Z,99409.50
2023-01-28T20:51:59.154Z,99405.28
2023-01-28T20:54:26.560Z,99404.63
2023-01-28T20:56:54.470Z,99403.06
2023-01-28T20:59:22.566Z,99404.50
2023-01-28T21:01:50.401Z,99403.91
2023-01-28T21:04:18.473Z,99394.31
2023-01-28T21:06:45.943Z,99404.44
2023-01-28T21:09:13.381Z,99400.75
2023-01-28T21:11:40.766Z,99404.09
2023-01-28T21:14:08.099Z,99409.94
2023-01-28T21:16:40.967Z,99413.34
2023-01-28T21:19:08.361Z,99415.59
2023-01-28T21:21:35.690Z,99411.63
2023-01-28T21:24:03.159Z,99404.44
2023-01-28T21:26:30.558Z,99398.38
2023-01-28T21:28:57.947Z,99401.31
2023-01-28T21:31:26.680Z,99389.72
2023-01-28T21:33:58.656Z,99389.53
2023-01-28T21:36:26.665Z,99401.09
2023-01-28T21:38:55.782Z,99399.81
2023-01-28T21:41:23.370Z,99396.66
2023-01-28T21:43:54.945Z,99390.97
2023-01-28T21:46:25.189Z,99388.13
2023-01-28T21:48:57.353Z,99392.19
2023-01-28T21:51:39.280Z,99390.63
2023-01-28T21:54:14.118Z,99394.66
2023-01-28T21:56:47.249Z,99390.75
2023-01-28T21:59:27.816Z,99385.72
2023-01-28T22:02:10.380Z,99396.38
2023-01-28T22:04:39.993Z,99402.63
2023-01-28T22:07:11.880Z,99392.91
2023-01-28T22:09:39.893Z,99394.06
2023-01-28T22:12:08.091Z,99399.78
2023-01-28T22:14:36.767Z,99396.28
2023-01-28T22:17:07.157Z,99402.97
2023-01-28T22:19:34.766Z,99408.13
2023-01-28T22:22:02.100Z,99413.78
2023-01-28T22:24:30.384Z,99404.13
2023-01-28T22:26:57.831Z,99405.59
2023-01-28T22:29:26.016Z,99406.09
2023-01-28T22:31:54.804Z,99395.44
2023-01-28T22:34:22.613Z,99400.16
2023-01-28T22:36:51.131Z,99393.00
2023-01-28T22:39:19.037Z,99399.94
2023-01-28T22:41:46.974Z,99403.38
2023-01-28T22:44:14.720Z,99399.47
2023-01-28T22:46:42.134Z,99391.88
2023-01-28T22:49:11.766Z,99396.50
2023-01-28T22:51:39.106Z,99402.16
2023-01-28T22:54:06.569Z,99407.81
2023-01-28T22:56:34.084Z,99410.72
2023-01-28T22:59:03.624Z,99408.81
2023-01-28T23:01:31.061Z,99398.00
2023-01-28T23:03:58.739Z,99401.19
2023-01-28T23:06:27.147Z,99403.44
2023-01-28T23:08:56.147Z,99397.00
2023-01-28T23:11:27.982Z,99404.38
2023-01-28T23:14:20.927Z,99404.69
2023-01-28T23:17:06.892Z,99411.31
2023-01-28T23:19:53.341Z,99407.91
2023-01-28T23:22:49.325Z,99394.28
2023-01-28T23:25:17.317Z,99399.69
2023-01-28T23:27:45.087Z,99398.81
2023-01-28T23:30:13.332Z,99396.94
2023-01-28T23:32:44.151Z,99396.25
2023-01-28T23:35:12.401Z,99391.34
2023-01-28T23:37:39.821Z,99391.88
2023-01-28T23:40:07.834Z,99390.84
2023-01-28T23:42:35.202Z,99381.53
2023-01-28T23:45:02.856Z,99381.81
2023-01-28T23:47:30.412Z,99375.47
2023-01-28T23:49:57.761Z,99374.28
2023-01-28T23:52:26.651Z,99366.22
2023-01-28T23:54:54.002Z,99375.22
2023-01-28T23:57:21.340Z,99376.06
2023-01-28T23:59:48.682Z,99380.47
